createdAt,value
2023-04-15T00:00:34.400Z,99222.75
2023-04-15T00:01:37.309Z,99234.47
2023-04-15T00:02:39.259Z,99229.00
2023-04-15T00:03:42.198Z,99229.25
2023-04-15T00:04:44.491Z,99231.31
2023-04-15T00:05:47.258Z,99225.03
2023-04-15T00:06:53.157Z,99229.88
2023-04-15T00:07:55.947Z,99222.72
2023-04-15T00:08:57.692Z,99229.03
2023-04-15T00:10:00.648Z,99227.34
2023-04-15T00:11:05.993Z,99221.22
2023-04-15T00:12:09.032Z,99224.19
2023-04-15T00:13:10.769Z,99226.25
2023-04-15T00:14:13.430Z,99220.19
2023-04-15T00:15:15.414Z,99227.72
2023-04-15T00:16:18.206Z,99223.53
2023-04-15T00:17:19.973Z,99220.16
2023-04-15T00:18:23.317Z,99218.69
2023-04-15T00:19:25.419Z,99221.63
2023-04-15T00:20:28.139Z,99224.75
2023-04-15T00:21:29.941Z,99224.75
2023-04-15T00:22:32.593Z,99218.69
2023-04-15T00:23:34.309Z,99216.56
2023-04-15T00:24:37.046Z,99228.09
2023-04-15T00:25:38.679Z,99219.28
2023-04-15T00:26:42.697Z,99220.75
2023-04-15T00:27:44.457Z,99214.66
2023-04-15T00:28:47.347Z,99210.66
2023-04-15T00:29:49.069Z,99211.88
2023-04-15T00:30:51.751Z,99214.38
2023-04-15T00:31:53.537Z,99213.13
2023-04-15T00:32:56.477Z,99211.84
2023-04-15T00:33:58.538Z,99210.56
2023-04-15T00:35:01.226Z,99213.06
2023-04-15T00:36:03.643Z,99208.22
2023-04-15T00:37:06.422Z,99208.00
2023-04-15T00:38:08.368Z,99215.53
2023-04-15T00:39:11.063Z,99215.09
2023-04-15T00:40:13.641Z,99210.06
2023-04-15T00:41:16.438Z,99207.72
2023-04-15T00:42:20.194Z,99209.63
2023-04-15T00:43:22.894Z,99205.41
2023-04-15T00:44:24.693Z,99211.03
2023-04-15T00:45:30.185Z,99208.53
2023-04-15T00:46:32.525Z,99201.41
2023-04-15T00:47:37.252Z,99200.75
2023-04-15T00:48:39.275Z,99200.97
2023-04-15T00:49:42.189Z,99205.78
2023-04-15T00:50:43.836Z,99205.97
2023-04-15T00:51:46.790Z,99202.63
2023-04-15T00:52:48.726Z,99210.97
2023-04-15T00:53:51.888Z,99206.56
2023-04-15T00:54:53.669Z,99213.94
2023-04-15T00:55:56.980Z,99205.94
2023-04-15T00:57:00.740Z,99208.84
2023-04-15T00:58:03.798Z,99213.47
2023-04-15T00:59:07.785Z,99219.94
2023-04-15T01:00:11.812Z,99213.03
2023-04-15T01:01:14.783Z,99220.53
2023-04-15T01:02:16.961Z,99213.63
2023-04-15T01:03:19.833Z,99212.13
2023-04-15T01:04:21.722Z,99210.00
2023-04-15T01:05:25.082Z,99212.94
2023-04-15T01:06:27.571Z,99211.66
2023-04-15T01:07:30.280Z,99213.72
2023-04-15T01:08:31.958Z,99213.72
2023-04-15T01:09:34.747Z,99212.03
2023-04-15T01:10:36.520Z,99211.19
2023-04-15T01:11:39.902Z,99221.88
2023-04-15T01:12:42.493Z,99212.03
2023-04-15T01:13:47.562Z,99215.59
2023-04-15T01:14:49.316Z,99217.28
2023-04-15T01:15:52.653Z,99217.47
2023-04-15T01:16:54.309Z,99220.19
2023-04-15T01:17:58.182Z,99212.25
2023-04-15T01:19:00.749Z,99216.84
2023-04-15T01:20:05.187Z,99217.22
2023-04-15T01:21:07.123Z,99210.09
2023-04-15T01:22:10.096Z,99216.59
2023-04-15T01:23:12.095Z,99216.59
2023-04-15T01:24:17.646Z,99221.19
2023-04-15T01:25:19.783Z,99222.03
2023-04-15T01:26:24.302Z,99214.91
2023-04-15T01:27:26.025Z,99218.66
2023-04-15T01:28:28.733Z,99224.09
2023-04-15T01:29:31.730Z,99227.84
2023-04-15T01:30:35.736Z,99223.66
2023-04-15T01:31:37.566Z,99219.44
2023-04-15T01:32:40.539Z,99218.59
2023-04-15T01:33:43.325Z,99220.69
2023-04-15T01:34:46.092Z,99224.63
2023-04-15T01:35:47.885Z,99216.88
2023-04-15T01:36:50.585Z,99219.16
2023-04-15T01:37:52.573Z,99217.88
2023-04-15T01:38:55.881Z,99220.97
2023-04-15T01:39:58.069Z,99216.97
2023-04-15T01:41:00.791Z,99218.22
2023-04-15T01:42:04.231Z,99215.69
2023-04-15T01:43:07.294Z,99218.59
2023-04-15T01:44:09.189Z,99213.53
2023-04-15T01:45:12.570Z,99211.84
2023-04-15T01:46:15.250Z,99225.84
2023-04-15T01:47:17.088Z,99211.59
2023-04-15T01:48:19.791Z,99210.97
2023-04-15T01:49:21.511Z,99224.56
2023-04-15T01:50:24.173Z,99216.78
2023-04-15T01:51:25.848Z,99220.53
2023-04-15T01:52:28.524Z,99218.22
2023-04-15T01:53:30.194Z,99212.31
2023-04-15T01:54:33.005Z,99216.25
2023-04-15T01:55:34.701Z,99213.09
2023-04-15T01:56:37.372Z,99216.00
2023-04-15T01:57:40.519Z,99214.34
2023-04-15T01:58:43.168Z,99211.81
2023-04-15T01:59:44.878Z,99213.69
2023-04-15T02:00:47.984Z,99216.59
2023-04-15T02:01:49.737Z,99210.28
2023-04-15T02:02:52.532Z,99214.06
2023-04-15T02:03:54.296Z,99212.38
2023-04-15T02:04:57.007Z,99216.13
2023-04-15T02:05:58.770Z,99212.75
2023-04-15T02:07:04.065Z,99215.47
2023-04-15T02:08:06.089Z,99210.03
2023-04-15T02:09:09.194Z,99215.47
2023-04-15T02:10:13.091Z,99214.66
2023-04-15T02:11:15.759Z,99222.81
2023-04-15T02:12:17.409Z,99221.97
2023-04-15T02:13:21.485Z,99215.47
2023-04-15T02:14:23.315Z,99217.38
2023-04-15T02:15:26.122Z,99216.31
2023-04-15T02:16:28.818Z,99221.75
2023-04-15T02:17:30.604Z,99210.88
2023-04-15T02:18:33.297Z,99216.31
2023-04-15T02:19:35.467Z,99220.09
2023-04-15T02:20:38.161Z,99213.81
2023-04-15T02:21:40.105Z,99218.41
2023-04-15T02:22:42.763Z,99208.56
2023-04-15T02:23:44.531Z,99209.22
2023-04-15T02:24:47.680Z,99212.75
2023-04-15T02:25:53.296Z,99209.84
2023-04-15T02:26:57.372Z,99212.38
2023-04-15T02:27:59.101Z,99203.19
2023-04-15T02:29:03.199Z,99210.13
2023-04-15T02:30:05.966Z,99209.09
2023-04-15T02:31:09.608Z,99208.91
2023-04-15T02:32:11.822Z,99208.06
2023-04-15T02:33:14.545Z,99204.28
2023-04-15T02:34:16.624Z,99204.09
2023-04-15T02:35:19.941Z,99203.06
2023-04-15T02:36:21.715Z,99209.53
2023-04-15T02:37:27.228Z,99206.81
2023-04-15T02:38:30.998Z,99202.41
2023-04-15T02:39:32.900Z,99206.19
2023-04-15T02:40:35.603Z,99212.66
2023-04-15T02:41:37.349Z,99218.28
2023-04-15T02:42:40.137Z,99214.91
2023-04-15T02:43:41.895Z,99218.66
2023-04-15T02:44:45.999Z,99220.72
2023-04-15T02:45:48.572Z,99223.63
2023-04-15T02:46:52.772Z,99216.53
2023-04-15T02:47:54.891Z,99211.47
2023-04-15T02:48:59.817Z,99222.56
2023-04-15T02:50:03.221Z,99219.16
2023-04-15T02:51:15.891Z,99219.34
2023-04-15T02:52:17.606Z,99221.44
2023-04-15T02:53:20.910Z,99222.47
2023-04-15T02:54:23.046Z,99225.38
2023-04-15T02:55:25.865Z,99218.28
2023-04-15T02:56:27.638Z,99216.75
2023-04-15T02:57:30.342Z,99222.19
2023-04-15T02:58:32.065Z,99221.34
2023-04-15T02:59:34.895Z,99225.75
2023-04-15T03:00:38.011Z,99223.22
2023-04-15T03:01:40.728Z,99225.09
2023-04-15T03:02:43.132Z,99228.03
2023-04-15T03:03:46.175Z,99222.59
2023-04-15T03:04:47.905Z,99226.34
2023-04-15T03:05:50.632Z,99230.75
2023-04-15T03:06:52.322Z,99221.94
2023-04-15T03:07:55.088Z,99227.56
2023-04-15T03:08:56.960Z,99231.13
2023-04-15T03:09:59.615Z,99227.75
2023-04-15T03:11:02.647Z,99228.63
2023-04-15T03:12:05.341Z,99223.16
2023-04-15T03:13:07.089Z,99220.63
2023-04-15T03:14:09.807Z,99223.34
2023-04-15T03:15:12.147Z,99224.19
2023-04-15T03:16:16.413Z,99225.03
2023-04-15T03:17:18.243Z,99224.84
2023-04-15T03:18:21.500Z,99222.13
2023-04-15T03:19:23.188Z,99224.03
2023-04-15T03:20:25.892Z,99220.25
2023-04-15T03:21:27.769Z,99220.91
2023-04-15T03:22:30.538Z,99218.19
2023-04-15T03:23:32.282Z,99219.03
2023-04-15T03:24:35.006Z,99221.94
2023-04-15T03:25:37.450Z,99223.63
2023-04-15T03:26:40.227Z,99223.44
2023-04-15T03:27:41.989Z,99220.06
2023-04-15T03:28:44.701Z,99224.66
2023-04-15T03:29:46.353Z,99224.66
2023-04-15T03:30:49.039Z,99221.94
2023-04-15T03:31:52.576Z,99221.75
2023-04-15T03:32:55.376Z,99219.03
2023-04-15T03:33:57.118Z,99227.19
2023-04-15T03:34:59.826Z,99222.59
2023-04-15T03:36:01.564Z,99227.00
2023-04-15T03:37:04.279Z,99226.16
2023-04-15T03:38:06.006Z,99227.00
2023-04-15T03:39:08.706Z,99227.63
2023-04-15T03:40:11.510Z,99224.91
2023-04-15T03:41:14.376Z,99222.88
2023-04-15T03:42:16.584Z,99223.50
2023-04-15T03:43:19.294Z,99227.06
2023-04-15T03:44:20.956Z,99218.91
2023-04-15T03:45:23.683Z,99219.56
2023-04-15T03:46:25.643Z,99213.28
2023-04-15T03:47:29.713Z,99218.50
2023-04-15T03:48:31.528Z,99216.63
2023-04-15T03:49:34.347Z,99218.13
2023-04-15T03:50:36.098Z,99220.69
2023-04-15T03:51:38.802Z,99223.19
2023-04-15T03:52:40.628Z,99219.63
2023-04-15T03:53:43.371Z,99223.19
2023-04-15T03:54:45.038Z,99220.47
2023-04-15T03:55:47.764Z,99224.03
2023-04-15T03:56:49.456Z,99223.41
2023-04-15T03:57:52.085Z,99224.44
2023-04-15T03:58:53.882Z,99229.03
2023-04-15T03:59:56.539Z,99220.00
2023-04-15T04:00:58.261Z,99217.47
2023-04-15T04:02:01.292Z,99214.75
2023-04-15T04:03:04.487Z,99219.34
2023-04-15T04:04:07.535Z,99214.31
2023-04-15T04:05:10.521Z,99215.75
2023-04-15T04:06:13.425Z,99217.78
2023-04-15T04:07:16.364Z,99215.28
2023-04-15T04:08:19.625Z,99212.94
2023-04-15T04:09:21.723Z,99213.97
2023-04-15T04:10:24.600Z,99214.53
2023-04-15T04:11:26.447Z,99216.81
2023-04-15T04:12:29.250Z,99211.94
2023-04-15T04:13:31.150Z,99216.94
2023-04-15T04:14:33.845Z,99215.63
2023-04-15T04:15:35.712Z,99213.28
2023-04-15T04:16:38.378Z,99214.13
2023-04-15T04:17:40.187Z,99218.72
2023-04-15T04:18:44.283Z,99216.84
2023-04-15T04:19:46.421Z,99211.41
2023-04-15T04:20:49.195Z,99221.25
2023-04-15T04:21:51.635Z,99215.81
2023-04-15T04:22:54.323Z,99223.97
2023-04-15T04:23:56.819Z,99219.38
2023-04-15T04:25:00.527Z,99223.78
2023-04-15T04:26:02.618Z,99220.22
2023-04-15T04:27:05.493Z,99218.34
2023-04-15T04:28:07.332Z,99220.84
2023-04-15T04:29:10.076Z,99223.78
2023-04-15T04:30:12.629Z,99220.41
2023-04-15T04:31:15.364Z,99230.41
2023-04-15T04:32:17.376Z,99222.47
2023-04-15T04:33:20.306Z,99226.84
2023-04-15T04:34:23.373Z,99229.56
2023-04-15T04:35:26.112Z,99218.72
2023-04-15T04:36:28.120Z,99226.84
2023-04-15T04:37:30.915Z,99229.56
2023-04-15T04:38:33.010Z,99227.06
2023-04-15T04:39:35.913Z,99227.25
2023-04-15T04:40:37.584Z,99226.41
2023-04-15T04:41:40.283Z,99229.13
2023-04-15T04:42:41.991Z,99231.84
2023-04-15T04:43:44.627Z,99238.97
2023-04-15T04:44:46.370Z,99243.56
2023-04-15T04:45:49.277Z,99245.41
2023-04-15T04:46:51.056Z,99244.56
2023-04-15T04:47:53.855Z,99231.00
2023-04-15T04:48:55.577Z,99240.00
2023-04-15T04:49:59.578Z,99235.22
2023-04-15T04:51:01.252Z,99231.66
2023-04-15T04:52:03.980Z,99236.88
2023-04-15T04:53:05.965Z,99240.25
2023-04-15T04:54:08.665Z,99233.81
2023-04-15T04:55:10.692Z,99234.66
2023-04-15T04:56:13.355Z,99234.44
2023-04-15T04:57:15.059Z,99238.00
2023-04-15T04:58:17.752Z,99229.66
2023-04-15T04:59:19.576Z,99232.56
2023-04-15T05:00:22.870Z,99235.09
2023-04-15T05:01:24.610Z,99230.06
2023-04-15T05:02:28.126Z,99237.16
2023-04-15T05:03:31.355Z,99229.84
2023-04-15T05:04:33.081Z,99240.53
2023-04-15T05:05:39.457Z,99236.78
2023-04-15T05:06:41.258Z,99242.00
2023-04-15T05:07:44.007Z,99247.09
2023-04-15T05:08:47.060Z,99242.50
2023-04-15T05:09:49.768Z,99237.69
2023-04-15T05:10:51.562Z,99239.38
2023-04-15T05:11:54.241Z,99242.97
2023-04-15T05:12:55.982Z,99241.94
2023-04-15T05:13:59.728Z,99239.00
2023-04-15T05:15:01.415Z,99245.28
2023-04-15T05:16:04.162Z,99243.22
2023-04-15T05:17:05.908Z,99251.19
2023-04-15T05:18:08.597Z,99245.75
2023-04-15T05:19:10.425Z,99248.09
2023-04-15T05:20:14.435Z,99247.06
2023-04-15T05:21:17.569Z,99250.41
2023-04-15T05:22:20.227Z,99249.22
2023-04-15T05:23:22.002Z,99251.72
2023-04-15T05:24:24.876Z,99249.00
2023-04-15T05:25:28.207Z,99257.81
2023-04-15T05:26:29.929Z,99245.91
2023-04-15T05:27:32.606Z,99246.75
2023-04-15T05:28:34.389Z,99252.81
2023-04-15T05:29:37.228Z,99252.66
2023-04-15T05:30:39.550Z,99261.47
2023-04-15T05:31:42.373Z,99251.41
2023-04-15T05:32:44.404Z,99253.09
2023-04-15T05:33:47.077Z,99257.50
2023-04-15T05:34:48.799Z,99253.53
2023-04-15T05:35:51.742Z,99258.63
2023-04-15T05:36:54.753Z,99250.28
2023-04-15T05:37:57.873Z,99250.91
2023-04-15T05:38:59.767Z,99251.75
2023-04-15T05:40:02.820Z,99257.00
2023-04-15T05:41:04.550Z,99250.72
2023-04-15T05:42:07.564Z,99254.28
2023-04-15T05:43:09.232Z,99254.06
2023-04-15T05:44:11.910Z,99254.56
2023-04-15T05:45:13.714Z,99254.34
2023-04-15T05:46:16.523Z,99261.28
2023-04-15T05:47:18.385Z,99253.75
2023-04-15T05:48:21.404Z,99257.97
2023-04-15T05:49:23.233Z,99263.03
2023-04-15T05:50:25.885Z,99252.81
2023-04-15T05:51:27.828Z,99258.88
2023-04-15T05:52:32.409Z,99254.94
2023-04-15T05:53:34.108Z,99261.66
2023-04-15T05:54:37.231Z,99261.66
2023-04-15T05:55:38.973Z,99270.28
2023-04-15T05:56:41.715Z,99259.22
2023-04-15T05:57:43.386Z,99268.03
2023-04-15T05:58:46.329Z,99268.47
2023-04-15T05:59:48.090Z,99270.78
2023-04-15T06:00:51.275Z,99267.72
2023-04-15T06:01:53.070Z,99272.75
2023-04-15T06:02:55.876Z,99278.44
2023-04-15T06:03:57.829Z,99279.91
2023-04-15T06:05:00.942Z,99279.31
2023-04-15T06:06:02.768Z,99282.31
2023-04-15T06:07:05.480Z,99275.66
2023-04-15T06:08:08.592Z,99286.13
2023-04-15T06:09:11.279Z,99287.63
2023-04-15T06:10:13.080Z,99284.91
2023-04-15T06:11:15.958Z,99278.63
2023-04-15T06:12:17.661Z,99283.59
2023-04-15T06:13:20.378Z,99289.44
2023-04-15T06:14:22.066Z,99288.16
2023-04-15T06:15:24.903Z,99286.47
2023-04-15T06:16:27.370Z,99283.13
2023-04-15T06:17:30.088Z,99283.13
2023-04-15T06:18:32.754Z,99289.19
2023-04-15T06:19:34.971Z,99291.91
2023-04-15T06:20:37.750Z,99292.56
2023-04-15T06:21:39.495Z,99290.88
2023-04-15T06:22:42.197Z,99289.19
2023-04-15T06:23:45.305Z,99293.59
2023-04-15T06:24:48.016Z,99294.25
2023-04-15T06:25:49.749Z,99302.03
2023-04-15T06:26:52.413Z,99297.03
2023-04-15T06:27:54.139Z,99294.09
2023-04-15T06:28:57.049Z,99302.53
2023-04-15T06:29:58.923Z,99298.22
2023-04-15T06:31:02.426Z,99301.19
2023-04-15T06:32:04.129Z,99306.03
2023-04-15T06:33:07.417Z,99302.50
2023-04-15T06:34:11.142Z,99308.22
2023-04-15T06:35:12.846Z,99304.03
2023-04-15T06:36:15.616Z,99302.63
2023-04-15T06:37:17.442Z,99312.94
2023-04-15T06:38:20.099Z,99308.94
2023-04-15T06:39:23.206Z,99305.81
2023-04-15T06:40:25.991Z,99317.19
2023-04-15T06:41:27.971Z,99315.06
2023-04-15T06:42:30.615Z,99309.25
2023-04-15T06:43:32.402Z,99313.06
2023-04-15T06:44:35.109Z,99312.66
2023-04-15T06:45:36.831Z,99310.34
2023-04-15T06:46:39.627Z,99315.22
2023-04-15T06:47:41.831Z,99315.63
2023-04-15T06:48:44.637Z,99314.22
2023-04-15T06:49:46.403Z,99325.97
2023-04-15T06:50:49.142Z,99319.44
2023-04-15T06:51:51.609Z,99316.34
2023-04-15T06:52:55.029Z,99318.66
2023-04-15T06:53:57.169Z,99323.50
2023-04-15T06:55:02.262Z,99318.28
2023-04-15T06:56:04.225Z,99326.69
2023-04-15T06:57:07.204Z,99320.44
2023-04-15T06:58:08.927Z,99325.91
2023-04-15T06:59:11.686Z,99318.78
2023-04-15T07:00:14.243Z,99328.06
2023-04-15T07:01:17.258Z,99327.44
2023-04-15T07:02:19.262Z,99332.09
2023-04-15T07:03:22.499Z,99325.81
2023-04-15T07:04:24.469Z,99336.97
2023-04-15T07:05:27.937Z,99323.53
2023-04-15T07:06:29.628Z,99334.47
2023-04-15T07:07:32.295Z,99328.00
2023-04-15T07:08:34.087Z,99329.72
2023-04-15T07:09:36.888Z,99330.78
2023-04-15T07:10:39.965Z,99322.81
2023-04-15T07:11:43.012Z,99327.41
2023-04-15T07:12:44.653Z,99318.59
2023-04-15T07:13:47.455Z,99321.97
2023-04-15T07:14:49.608Z,99320.06
2023-04-15T07:15:52.346Z,99321.78
2023-04-15T07:16:54.045Z,99316.94
2023-04-15T07:17:56.837Z,99316.50
2023-04-15T07:18:58.488Z,99324.28
2023-04-15T07:20:01.132Z,99323.22
2023-04-15T07:21:02.933Z,99311.22
2023-04-15T07:22:05.608Z,99323.81
2023-04-15T07:23:08.000Z,99320.25
2023-04-15T07:24:11.409Z,99320.00
2023-04-15T07:25:13.090Z,99317.47
2023-04-15T07:26:17.387Z,99323.97
2023-04-15T07:27:19.123Z,99317.84
2023-04-15T07:28:21.905Z,99324.59
2023-04-15T07:29:23.636Z,99321.44
2023-04-15T07:30:26.521Z,99322.47
2023-04-15T07:31:29.391Z,99327.09
2023-04-15T07:32:32.087Z,99329.56
2023-04-15T07:33:33.862Z,99323.22
2023-04-15T07:34:36.576Z,99322.97
2023-04-15T07:35:38.302Z,99330.97
2023-04-15T07:36:41.272Z,99325.22
2023-04-15T07:37:43.428Z,99322.00
2023-04-15T07:38:46.126Z,99325.56
2023-04-15T07:39:47.993Z,99325.09
2023-04-15T07:40:50.940Z,99325.66
2023-04-15T07:41:54.995Z,99327.91
2023-04-15T07:42:58.292Z,99319.19
2023-04-15T07:44:01.046Z,99315.09
2023-04-15T07:45:03.939Z,99319.28
2023-04-15T07:46:05.983Z,99325.31
2023-04-15T07:47:08.728Z,99322.28
2023-04-15T07:48:11.431Z,99323.69
2023-04-15T07:49:14.431Z,99326.16
2023-04-15T07:50:17.325Z,99325.63
2023-04-15T07:51:21.045Z,99316.88
2023-04-15T07:52:22.784Z,99325.44
2023-04-15T07:53:26.134Z,99323.44
2023-04-15T07:54:27.842Z,99322.06
2023-04-15T07:55:30.736Z,99330.00
2023-04-15T07:56:32.812Z,99329.31
2023-04-15T07:57:37.035Z,99326.47
2023-04-15T07:58:39.912Z,99329.38
2023-04-15T07:59:41.822Z,99336.09
2023-04-15T08:00:44.771Z,99326.78
2023-04-15T08:01:47.471Z,99326.56
2023-04-15T08:02:49.912Z,99328.81
2023-04-15T08:03:53.241Z,99333.66
2023-04-15T08:04:55.147Z,99327.47
2023-04-15T08:05:57.923Z,99328.25
2023-04-15T08:07:00.624Z,99322.88
2023-04-15T08:08:02.907Z,99324.47
2023-04-15T08:09:05.727Z,99320.78
2023-04-15T08:10:09.474Z,99322.63
2023-04-15T08:11:11.532Z,99324.19
2023-04-15T08:12:14.898Z,99330.19
2023-04-15T08:13:18.002Z,99334.16
2023-04-15T08:14:21.038Z,99324.59
2023-04-15T08:15:23.442Z,99327.69
2023-04-15T08:16:27.907Z,99330.22
2023-04-15T08:17:29.888Z,99329.38
2023-04-15T08:18:32.533Z,99330.44
2023-04-15T08:19:35.608Z,99321.63
2023-04-15T08:20:37.611Z,99332.84
2023-04-15T08:21:40.678Z,99329.25
2023-04-15T08:22:43.609Z,99325.66
2023-04-15T08:23:46.782Z,99323.97
2023-04-15T08:24:49.447Z,99326.97
2023-04-15T08:25:51.286Z,99320.63
2023-04-15T08:26:54.637Z,99328.03
2023-04-15T08:27:57.607Z,99327.19
2023-04-15T08:29:02.020Z,99327.81
2023-04-15T08:30:05.172Z,99321.84
2023-04-15T08:31:08.138Z,99329.03
2023-04-15T08:32:10.904Z,99331.28
2023-04-15T08:33:13.161Z,99327.69
2023-04-15T08:34:16.065Z,99326.63
2023-04-15T08:35:18.178Z,99331.91
2023-04-15T08:36:21.097Z,99326.75
2023-04-15T08:37:23.230Z,99329.03
2023-04-15T08:38:25.911Z,99330.25
2023-04-15T08:39:28.663Z,99330.00
2023-04-15T08:40:40.308Z,99326.53
2023-04-15T08:41:47.809Z,99332.66
2023-04-15T08:42:50.329Z,99329.91
2023-04-15T08:43:59.109Z,99321.88
2023-04-15T08:45:04.672Z,99327.38
2023-04-15T08:46:07.446Z,99331.34
2023-04-15T08:47:09.477Z,99330.03
2023-04-15T08:48:16.846Z,99325.13
2023-04-15T08:49:20.758Z,99330.41
2023-04-15T08:50:22.839Z,99333.75
2023-04-15T08:51:26.430Z,99329.69
2023-04-15T08:52:28.536Z,99326.22
2023-04-15T08:53:31.494Z,99332.72
2023-04-15T08:54:34.065Z,99330.56
2023-04-15T08:55:37.956Z,99331.78
2023-04-15T08:56:41.054Z,99328.31
2023-04-15T08:57:43.200Z,99328.44
2023-04-15T08:58:46.335Z,99329.38
2023-04-15T08:59:48.464Z,99323.75
2023-04-15T09:00:52.590Z,99335.47
2023-04-15T09:01:55.369Z,99328.41
2023-04-15T09:02:58.188Z,99324.72
2023-04-15T09:04:00.182Z,99326.75
2023-04-15T09:05:04.989Z,99326.84
2023-04-15T09:06:06.952Z,99335.47
2023-04-15T09:07:09.698Z,99328.38
2023-04-15T09:08:12.146Z,99334.00
2023-04-15T09:09:15.295Z,99339.38
2023-04-15T09:10:17.335Z,99337.31
2023-04-15T09:11:20.670Z,99333.00
2023-04-15T09:12:23.331Z,99337.78
2023-04-15T09:13:25.472Z,99333.22
2023-04-15T09:14:32.123Z,99334.44
2023-04-15T09:15:33.900Z,99334.28
2023-04-15T09:16:58.842Z,99340.50
2023-04-15T09:18:01.719Z,99333.75
2023-04-15T09:19:20.801Z,99345.47
2023-04-15T09:20:24.098Z,99343.91
2023-04-15T09:21:27.722Z,99344.25
2023-04-15T09:22:32.755Z,99343.75
2023-04-15T09:23:35.905Z,99349.03
2023-04-15T09:24:39.169Z,99346.78
2023-04-15T09:25:43.198Z,99353.69
2023-04-15T09:26:44.873Z,99354.22
2023-04-15T09:27:49.752Z,99358.88
2023-04-15T09:28:51.415Z,99357.19
2023-04-15T09:29:54.940Z,99353.09
2023-04-15T09:30:57.621Z,99363.06
2023-04-15T09:32:10.857Z,99362.56
2023-04-15T09:33:15.877Z,99361.13
2023-04-15T09:34:17.963Z,99360.56
2023-04-15T09:35:21.460Z,99368.00
2023-04-15T09:36:25.204Z,99369.66
2023-04-15T09:37:35.453Z,99375.25
2023-04-15T09:38:56.128Z,99365.66
2023-04-15T09:39:58.797Z,99364.59
2023-04-15T09:41:00.583Z,99366.50
2023-04-15T09:42:07.904Z,99368.44
2023-04-15T09:43:13.043Z,99370.13
2023-04-15T09:44:24.414Z,99369.84
2023-04-15T09:45:29.578Z,99368.28
2023-04-15T09:46:41.488Z,99363.44
2023-04-15T09:47:45.684Z,99377.94
2023-04-15T09:48:47.461Z,99366.72
2023-04-15T09:49:57.571Z,99364.66
2023-04-15T09:51:01.473Z,99367.50
2023-04-15T09:52:06.278Z,99371.69
2023-04-15T09:53:10.719Z,99371.44
2023-04-15T09:54:12.439Z,99373.13
2023-04-15T09:55:17.132Z,99377.53
2023-04-15T09:56:22.966Z,99377.81
2023-04-15T09:57:26.027Z,99380.81
2023-04-15T09:58:29.184Z,99377.19
2023-04-15T09:59:31.949Z,99383.31
2023-04-15T10:00:34.749Z,99384.97
2023-04-15T10:01:37.148Z,99383.88
2023-04-15T10:02:41.518Z,99379.84
2023-04-15T10:03:46.622Z,99389.28
2023-04-15T10:04:49.563Z,99379.09
2023-04-15T10:05:53.469Z,99380.78
2023-04-15T10:06:55.212Z,99388.78
2023-04-15T10:07:58.254Z,99384.09
2023-04-15T10:09:00.039Z,99389.16
2023-04-15T10:10:03.648Z,99387.19
2023-04-15T10:11:07.952Z,99388.63
2023-04-15T10:12:09.972Z,99387.78
2023-04-15T10:13:16.000Z,99394.72
2023-04-15T10:14:18.760Z,99390.31
2023-04-15T10:15:22.328Z,99399.69
2023-04-15T10:16:28.168Z,99394.16
2023-04-15T10:17:33.635Z,99393.56
2023-04-15T10:18:39.324Z,99398.50
2023-04-15T10:19:42.890Z,99400.44
2023-04-15T10:20:45.985Z,99401.28
2023-04-15T10:21:47.887Z,99402.84
2023-04-15T10:22:51.183Z,99403.34
2023-04-15T10:23:53.096Z,99397.69
2023-04-15T10:24:57.395Z,99409.00
2023-04-15T10:25:59.498Z,99394.59
2023-04-15T10:27:02.709Z,99403.13
2023-04-15T10:28:05.573Z,99407.78
2023-04-15T10:29:11.911Z,99407.56
2023-04-15T10:30:13.766Z,99405.13
2023-04-15T10:31:18.535Z,99406.81
2023-04-15T10:32:21.138Z,99412.56
2023-04-15T10:33:25.945Z,99409.81
2023-04-15T10:34:27.905Z,99409.81
2023-04-15T10:35:32.779Z,99403.47
2023-04-15T10:36:34.570Z,99410.66
2023-04-15T10:37:38.861Z,99409.38
2023-04-15T10:38:41.938Z,99410.44
2023-04-15T10:39:45.223Z,99408.53
2023-04-15T10:40:48.199Z,99414.53
2023-04-15T10:42:06.488Z,99413.41
2023-04-15T10:43:26.337Z,99412.84
2023-04-15T10:44:28.023Z,99418.59
2023-04-15T10:45:34.688Z,99419.69
2023-04-15T10:46:38.660Z,99417.75
2023-04-15T10:47:41.642Z,99412.25
2023-04-15T10:48:48.224Z,99421.13
2023-04-15T10:49:52.773Z,99423.03
2023-04-15T10:50:58.126Z,99418.38
2023-04-15T10:52:01.012Z,99421.34
2023-04-15T10:53:03.596Z,99422.44
2023-04-15T10:54:10.671Z,99420.78
2023-04-15T10:55:15.657Z,99418.03
2023-04-15T10:56:17.623Z,99424.97
2023-04-15T10:57:23.815Z,99420.84
2023-04-15T10:58:25.997Z,99423.59
2023-04-15T10:59:30.457Z,99423.16
2023-04-15T11:00:32.891Z,99418.38
2023-04-15T11:01:56.748Z,99425.19
2023-04-15T11:03:00.911Z,99423.78
2023-04-15T11:04:03.232Z,99423.78
2023-04-15T11:05:06.676Z,99427.38
2023-04-15T11:06:11.149Z,99432.41
2023-04-15T11:07:12.875Z,99427.47
2023-04-15T11:08:16.260Z,99428.69
2023-04-15T11:09:32.568Z,99427.69
2023-04-15T11:10:56.372Z,99431.97
2023-04-15T11:12:08.446Z,99430.63
2023-04-15T11:13:17.793Z,99424.63
2023-04-15T11:14:20.488Z,99429.06
2023-04-15T11:15:28.800Z,99434.06
2023-04-15T11:16:31.532Z,99430.22
2023-04-15T11:17:33.384Z,99426.94
2023-04-15T11:18:36.319Z,99426.72
2023-04-15T11:19:38.890Z,99425.63
2023-04-15T11:20:43.012Z,99432.00
2023-04-15T11:21:47.061Z,99426.47
2023-04-15T11:22:48.930Z,99428.13
2023-04-15T11:23:52.117Z,99434.00
2023-04-15T11:24:53.823Z,99433.81
2023-04-15T11:25:56.786Z,99434.00
2023-04-15T11:26:59.859Z,99447.22
2023-04-15T11:28:02.440Z,99437.72
2023-04-15T11:29:05.352Z,99436.84
2023-04-15T11:30:19.091Z,99444.44
2023-04-15T11:31:23.899Z,99450.88
2023-04-15T11:32:25.700Z,99444.00
2023-04-15T11:33:28.409Z,99443.16
2023-04-15T11:34:31.621Z,99450.13
2023-04-15T11:35:34.572Z,99449.34
2023-04-15T11:36:37.273Z,99449.66
2023-04-15T11:37:40.455Z,99445.88
2023-04-15T11:38:48.182Z,99450.13
2023-04-15T11:39:49.877Z,99446.94
2023-04-15T11:40:53.264Z,99448.16
2023-04-15T11:41:55.048Z,99449.38
2023-04-15T11:43:08.410Z,99436.50
2023-04-15T11:44:18.083Z,99444.66
2023-04-15T11:45:20.045Z,99444.53
2023-04-15T11:46:23.582Z,99441.28
2023-04-15T11:47:25.316Z,99438.31
2023-04-15T11:48:29.589Z,99445.84
2023-04-15T11:49:33.911Z,99445.84
2023-04-15T11:50:37.224Z,99442.78
2023-04-15T11:51:40.172Z,99443.81
2023-04-15T11:52:52.807Z,99447.84
2023-04-15T11:53:55.876Z,99440.63
2023-04-15T11:55:03.524Z,99448.88
2023-04-15T11:56:07.497Z,99443.53
2023-04-15T11:57:09.272Z,99445.34
2023-04-15T11:58:15.104Z,99440.28
2023-04-15T11:59:18.880Z,99436.88
2023-04-15T12:00:20.971Z,99440.41
2023-04-15T12:01:32.514Z,99447.25
2023-04-15T12:02:36.903Z,99450.19
2023-04-15T12:03:40.918Z,99452.63
2023-04-15T12:04:43.297Z,99454.25
2023-04-15T12:06:06.136Z,99460.25
2023-04-15T12:07:08.862Z,99465.28
2023-04-15T12:08:12.249Z,99467.63
2023-04-15T12:09:15.714Z,99471.94
2023-04-15T12:10:17.998Z,99465.38
2023-04-15T12:11:21.316Z,99477.38
2023-04-15T12:12:28.279Z,99473.59
2023-04-15T12:13:30.026Z,99476.41
2023-04-15T12:14:36.623Z,99476.25
2023-04-15T12:15:39.310Z,99477.66
2023-04-15T12:16:48.646Z,99472.53
2023-04-15T12:17:55.915Z,99479.44
2023-04-15T12:18:59.083Z,99471.78
2023-04-15T12:20:04.524Z,99479.38
2023-04-15T12:21:10.799Z,99479.00
2023-04-15T12:22:15.499Z,99475.06
2023-04-15T12:23:20.928Z,99480.59